Home > Products > Valid Products > MTR

000
SAUS44 KLCH 301155
MTRP92
METAR KP92 301153Z AUTO 02006KT 11/07 A3031 RMK AO1 SLP262 70001
T01110067 10139 20111 53019





000
SAUS44 KLCH 301054
MTRP92
METAR KP92 301053Z AUTO 01005KT 12/08 A3028 RMK AO1 SLP254 T01220078





000
SAUS44 KLCH 301000 COR
MTRP92
METAR KP92 300953Z AUTO 02005KT 13/09 A3026 RMK AO1 SLP247 T01330094





000
SAUS44 KLCH 300855
MTRP92
METAR KP92 300853Z AUTO 02006KT 14/12 A3025 RMK AO1 SLP243 T01390117
56001





000
SAUS44 KLCH 300754
MTRP92
METAR KP92 300753Z AUTO 31003KT 13/13 A3025 RMK AO1 SLP243 T01330133





000
SAUS44 KLCH 300655
MTRP92
METAR KP92 300653Z AUTO 00000KT 13/12 A3024 RMK AO1 SLP241 T01280122





000
SAUS44 KLCH 300555
MTRP92
METAR KP92 300553Z AUTO 00000KT 12/12 A3025 RMK AO1 SLP244 P0001
60001 T01220122 10156 20122 402000111 50003





000
SAUS44 KLCH 300458 COR
MTRP92
METAR KP92 300453Z AUTO 25003KT 12/12 A3025 RMK AO1 SLP244 T01220122





000
SAUS44 KLCH 300355
MTRP92
METAR KP92 300353Z AUTO 00000KT 13/12 A3025 RMK AO1 SLP244 T01280122





000
SAUS44 KLCH 300255
MTRP92
METAR KP92 300253Z AUTO 24003KT 13/12 A3024 RMK AO1 SLP240 T01280122





000
SAUS44 KLCH 300154
MTRP92
METAR KP92 300153Z AUTO 22003KT 13/13 A3024 RMK AO1 SLP239 T01280128





000
SAUS44 KLCH 300055
MTRP92
METAR KP92 300053Z AUTO 00000KT 13/13 A3022 RMK AO1 SLP234 T01280128





000
SAUS44 KLCH 292354
MTRP92
METAR KP92 292353Z AUTO 20004KT 15/15 A3020 RMK AO1 SLP227 T01500150
10200 20150 53001





000
SAUS44 KLCH 292254
MTRP92
METAR KP92 292253Z AUTO VRB04KT 17/16 A3020 RMK AO1 SLP227 T01720161





000
SAUS44 KLCH 292154
MTRP92
METAR KP92 292153Z AUTO VRB04KT 18/16 A3020 RMK AO1 SLP225 T01830161





000
SAUS44 KLCH 292154
MTRP92
METAR KP92 292153Z AUTO VRB04KT 18/16 A3020 RMK AO1 SLP225 T01830161





000
SAUS44 KLCH 292054
MTRP92
METAR KP92 292053Z AUTO VRB04KT 19/16 A3020 RMK AO1 SLP226 T01940161
56021





000
SAUS44 KLCH 291955
MTRP92
METAR KP92 291953Z AUTO 22006KT 19/16 A3021 RMK AO1 SLP229 T01890161





000
SAUS44 KLCH 291854
MTRP92
METAR KP92 291853Z AUTO 23003KT 19/16 A3023 RMK AO1 SLP236 T01890156





000
SAUS44 KLCH 291759 COR
MTRP92
METAR KP92 291753Z AUTO 26003KT 18/14 A3026 RMK AO1 SLP247 T01780144
10200 20128 51008





000
SAUS44 KLCH 291654
MTRP92
METAR KP92 291653Z AUTO VRB04KT 20/15 A3026 RMK AO1 SLP247 T02000150





000
SAUS44 KLCH 291555
MTRP92
METAR KP92 291553Z AUTO 15006KT 19/14 A3026 RMK AO1 SLP245 T01890144





000
SAUS44 KLCH 291455
MTRP92
METAR KP92 291453Z AUTO 14007KT 17/13 A3024 RMK AO1 SLP239 T01670133





000
SAUS44 KLCH 291354
MTRP92
METAR KP92 291353Z AUTO 13005KT 14/12 A3021 RMK AO1 SLP230 T01390122





000
SAUS44 KLCH 291254
MTRP92
METAR KP92 291253Z AUTO 13008KT 13/12 A3019 RMK AO1 SLP223 T01330117





000
SAUS44 KLCH 291154
MTRP92
METAR KP92 291153Z AUTO 13006KT 13/12 A3018 RMK AO1 SLP221 60001
70001 T01280117 10128 20111 58008





000
SAUS44 KLCH 291054
MTRP92
METAR KP92 291053Z AUTO 14005KT 13/12 A3020 RMK AO1 SLP225 T01280117





000
SAUS44 KLCH 290955
MTRP92
METAR KP92 290953Z AUTO 13005KT 12/12 A3021 RMK AO1 SLP229 P0001
T01220117





000
SAUS44 KLCH 290855
MTRP92
METAR KP92 290853Z AUTO 12004KT 12/12 A3021 RMK AO1 SLP229 T01170117
50002





000
SAUS44 KLCH 290754
MTRP92
METAR KP92 290753Z AUTO 12004KT 12/11 A3021 RMK AO1 SLP231 T01170111





000
SAUS44 KLCH 290655
MTRP92
METAR KP92 290653Z AUTO 11004KT 12/11 A3020 RMK AO1 SLP226 T01170111





000
SAUS44 KLCH 290555
MTRP92
METAR KP92 290553Z AUTO 11004KT 11/11 A3020 RMK AO1 SLP227 T01110106
10133 20111 401890083





000
SAUS44 KLCH 290455
MTRP92
METAR KP92 290453Z AUTO 12005KT 12/11 A3019 RMK AO1 SLP224 T01170106





000
SAUS44 KLCH 290354
MTRP92
METAR KP92 290353Z AUTO 12005KT 12/10 A3020 RMK AO1 SLP226 T01170100





000
SAUS44 KLCH 290254
MTRP92
METAR KP92 290253Z AUTO 12006KT 13/10 A3020 RMK AO1 SLP226 T01280100
55007





000
SAUS44 KLCH 290154
MTRP92
METAR KP92 290153Z AUTO 12007KT 13/10 A3019 RMK AO1 SLP223 T01330100





000
SAUS44 KLCH 290054
MTRP92
METAR KP92 290053Z AUTO 13006KT 13/10 A3022 RMK AO1 SLP231 T01330100





000
SAUS44 KLCH 290054
MTRP92
METAR KP92 290053Z AUTO 13006KT 13/10 A3022 RMK AO1 SLP231 T01330100





000
SAUS44 KLCH 282354
MTRP92
METAR KP92 282353Z AUTO 14004KT 13/09 A3022 RMK AO1 SLP233 T01330089
10189 20133 51003





000
SAUS44 KLCH 282254
MTRP92
METAR KP92 282253Z AUTO 15004KT 16/08 A3022 RMK AO1 SLP232 T01560078





000
SAUS44 KLCH 282154
MTRP92
METAR KP92 282153Z AUTO 15006KT 18/08 A3022 RMK AO1 SLP231 T01780083





000
SAUS44 KLCH 282054
MTRP92
METAR KP92 282053Z AUTO 15008G15KT 18/07 A3021 RMK AO1 SLP230
T01830072 56014





000
SAUS44 KLCH 281954
MTRP92
METAR KP92 281953Z AUTO 15007KT 120V190 18/07 A3021 RMK AO1 SLP231
T01830072





000
SAUS44 KLCH 281854
MTRP92
METAR KP92 281853Z AUTO 14007KT 18/07 A3023 RMK AO1 SLP235 T01780072





000
SAUS44 KLCH 281754
MTRP92
METAR KP92 281753Z AUTO 13008KT 18/06 A3025 RMK AO1 SLP244 T01830061
10183 20089 50001





000
SAUS44 KLCH 281654
MTRP92
METAR KP92 281653Z AUTO 12008KT 18/06 A3027 RMK AO1 SLP248 T01780056





000
SAUS44 KLCH 281554
MTRP92
METAR KP92 281553Z AUTO 11008KT 16/05 A3026 RMK AO1 SLP245 T01560050





000
SAUS44 KLCH 281554
MTRP92
METAR KP92 281553Z AUTO 11008KT 16/05 A3026 RMK AO1 SLP245 T01560050





000
SAUS44 KLCH 281455
MTRP92
METAR KP92 281453Z AUTO 11007KT 13/06 A3025 RMK AO1 SLP243 T01330056
51018





000
SAUS44 KLCH 281355
MTRP92
METAR KP92 281353Z AUTO VRB05KT 11/04 A3023 RMK AO1 SLP237 T01060044





000
SAUS44 KLCH 281255
MTRP92
METAR KP92 281253Z AUTO 10004KT 09/04 A3022 RMK AO1 SLP232 T00890039





000
SAUS44 KLCH 281154
MTRP92
METAR KP92 281153Z AUTO 11003KT 09/05 A3020 RMK AO1 SLP225 70001
T00890050 10111 20083 53008





000
SAUS44 KLCH 281054
MTRP92
METAR KP92 281053Z AUTO 00000KT 08/06 A3018 RMK AO1 SLP220 T00830061





000
SAUS44 KLCH 280954
MTRP92
METAR KP92 280953Z AUTO 00000KT 09/07 A3017 RMK AO1 SLP217 T00890067





000
SAUS44 KLCH 280954
MTRP92
METAR KP92 280953Z AUTO 00000KT 09/07 A3017 RMK AO1 SLP217 T00890067





000
SAUS44 KLCH 280854
MTRP92
METAR KP92 280853Z AUTO 00000KT 09/07 A3017 RMK AO1 SLP217 T00890072
53002





000
SAUS44 KLCH 280754
MTRP92
METAR KP92 280753Z AUTO 00000KT 09/08 A3017 RMK AO1 SLP216 T00940078





000
SAUS44 KLCH 280655
MTRP92
METAR KP92 280653Z AUTO 00000KT 10/09 A3016 RMK AO1 SLP212 T01000089





000
SAUS44 KLCH 280655
MTRP92
METAR KP92 280653Z AUTO 00000KT 10/09 A3016 RMK AO1 SLP212 T01000089





000
SAUS44 KLCH 280554
MTRP92
METAR KP92 280553Z AUTO 01003KT 11/09 A3017 RMK AO1 SLP215 T01110094
10139 20100 401830100 53007





000
SAUS44 KLCH 280554
MTRP92
METAR KP92 280553Z AUTO 01003KT 11/09 A3017 RMK AO1 SLP215 T01110094
10139 20100 401830100 53007





000
SAUS44 KLCH 280454
MTRP92
METAR KP92 280453Z AUTO 00000KT 10/08 A3016 RMK AO1 SLP213 T01000083





000
SAUS44 KLCH 280355
MTRP92
METAR KP92 280353Z AUTO 00000KT 12/11 A3015 RMK AO1 SLP210 T01220106





000
SAUS44 KLCH 280254
MTRP92
METAR KP92 280253Z AUTO 00000KT 12/11 A3015 RMK AO1 SLP208 T01220111
51011





000
SAUS44 KLCH 280254
MTRP92
METAR KP92 280253Z AUTO 00000KT 12/11 A3015 RMK AO1 SLP208 T01220111
51011





000
SAUS44 KLCH 280155
MTRP92
METAR KP92 280153Z AUTO 24003KT 12/11 A3014 RMK AO1 SLP205 T01220111





000
SAUS44 KLCH 280054
MTRP92
METAR KP92 280053Z AUTO 24003KT 12/11 A3013 RMK AO1 SLP201 T01220111





000
SAUS44 KLCH 272355
MTRP92
METAR KP92 272353Z AUTO VRB04KT 13/11 A3011 RMK AO1 SLP197 T01330111
10183 20133 53008





000
SAUS44 KLCH 272255
MTRP92
METAR KP92 272253Z AUTO VRB03KT 15/12 A3010 RMK AO1 SLP192 T01500122





000
SAUS44 KLCH 272154
MTRP92
METAR KP92 272153Z AUTO VRB03KT 17/09 A3009 RMK AO1 SLP189 T01720094





000
SAUS44 KLCH 272054
MTRP92
METAR KP92 272053Z AUTO 23005KT 17/10 A3009 RMK AO1 SLP189 T01720100
56013





000
SAUS44 KLCH 271954
MTRP92
METAR KP92 271953Z AUTO VRB03KT 16/10 A3009 RMK AO1 SLP189 T01560100





000
SAUS44 KLCH 271854
MTRP92
METAR KP92 271853Z AUTO 26004KT 16/10 A3010 RMK AO1 SLP192 T01560100





000
SAUS44 KLCH 271754
MTRP92
METAR KP92 271753Z AUTO 26005KT 13/11 A3013 RMK AO1 SLP202 60001
T01330106 10139 20106 58000





000
SAUS44 KLCH 271654
MTRP92
METAR KP92 271653Z AUTO 27005KT 13/10 A3015 RMK AO1 SLP209 T01280100





000
SAUS44 KLCH 271554
MTRP92
METAR KP92 271553Z AUTO 29006KT 13/11 A3015 RMK AO1 SLP208 T01330106





000
SAUS44 KLCH 271454
MTRP92
METAR KP92 271453Z AUTO 28005KT 13/11 A3013 RMK AO1 SLP202 60001
T01280106 53014





000
SAUS44 KLCH 271354
MTRP92
METAR KP92 271353Z AUTO 27004KT 12/10 A3011 RMK AO1 SLP196 P0001
T01220100





000
SAUS44 KLCH 271254
MTRP92
METAR KP92 271253Z AUTO 26003KT 11/09 A3010 RMK AO1 SLP191 T01060094





    US Dept of Commerce
    National Oceanic and Atmospheric Administration
    National Weather Service
    1325 East West Highway
    Silver Spring, MD 20910
    Page Author: NWS Internet Services Team
Disclaimer
Information Quality
Credits
Glossary
Privacy Policy
Freedom of Information Act (FOIA)
About Us
Career Opportunities